Time;durP1;ratioP1;P1;durP2;ratioP2;P2;SDS_P1;SDS_P2;PMS_P1;PMS_P2;Temp;Humidity;BMP_temperature;BMP_pressure;BME280_temperature;BME280_humidity;BME280_pressure;Samples;Min_cycle;Max_cycle;Signal;HPM_P1;HPM_P2
2022/01/03 00:00:37;;;;;;;8.82;2.72;;;;;;;;;;2321044;58;21033;-78
2022/01/03 00:03:05;;;;;;;13.20;4.07;;;;;;;;;;2321241;58;21053;-79
2022/01/03 00:05:32;;;;;;;8.43;3.30;;;;;;;;;;2563135;54;21042;-79
2022/01/03 00:07:59;;;;;;;7.85;3.47;;;;;;;;;;2563207;54;21140;-80
2022/01/03 00:10:27;;;;;;;8.15;3.35;;;;;;;;;;2563261;54;21045;-79
2022/01/03 00:12:53;;;;;;;7.45;3.33;;;;;;;;;;2321726;58;21050;-78
2022/01/03 00:15:21;;;;;;;8.43;4.05;;;;;;;;;;2562617;54;21053;-80
2022/01/03 00:17:48;;;;;;;11.93;4.57;;;;;;;;;;2563432;54;21049;-79
2022/01/03 00:20:16;;;;;;;9.65;4.40;;;;;;;;;;2321653;58;21049;-79
2022/01/03 00:22:45;;;;;;;12.02;4.30;;;;;;;;;;2563377;54;21132;-80
2022/01/03 00:25:16;;;;;;;12.15;5.10;;;;;;;;;;2321008;58;21133;-78
2022/01/03 00:27:46;;;;;;;11.80;5.03;;;;;;;;;;2321953;58;21069;-78
2022/01/03 00:30:13;;;;;;;11.20;5.00;;;;;;;;;;2321010;58;21565;-80
2022/01/03 00:32:43;;;;;;;10.25;5.30;;;;;;;;;;2563449;54;21652;-80
2022/01/03 00:35:10;;;;;;;12.43;5.53;;;;;;;;;;2563450;54;21058;-79
2022/01/03 00:37:37;;;;;;;10.93;5.55;;;;;;;;;;2563657;54;21514;-81
2022/01/03 00:40:05;;;;;;;11.88;5.18;;;;;;;;;;2321691;58;21065;-80
2022/01/03 00:42:32;;;;;;;13.65;5.87;;;;;;;;;;2321584;58;21133;-79
2022/01/03 00:45:00;;;;;;;11.30;5.78;;;;;;;;;;2321533;58;21168;-81
2022/01/03 00:47:29;;;;;;;11.68;5.20;;;;;;;;;;2563373;54;21069;-80
2022/01/03 00:49:57;;;;;;;10.80;6.15;;;;;;;;;;2321122;58;21057;-80
2022/01/03 00:52:24;;;;;;;14.82;6.15;;;;;;;;;;2563098;54;21235;-80
2022/01/03 00:54:51;;;;;;;13.82;5.87;;;;;;;;;;2321280;58;21057;-81
2022/01/03 00:57:22;;;;;;;16.42;6.20;;;;;;;;;;2321593;58;21613;-81
2022/01/03 00:59:53;;;;;;;9.77;5.00;;;;;;;;;;2562863;54;21119;-81
2022/01/03 01:02:21;;;;;;;13.25;4.43;;;;;;;;;;2563037;54;21056;-80
2022/01/03 01:04:48;;;;;;;11.07;4.20;;;;;;;;;;2563191;54;21045;-80
2022/01/03 01:07:16;;;;;;;6.47;3.75;;;;;;;;;;2321492;58;21105;-79
2022/01/03 01:09:44;;;;;;;8.18;3.70;;;;;;;;;;2563538;54;21073;-79
2022/01/03 01:12:12;;;;;;;9.15;2.85;;;;;;;;;;2562738;54;21069;-80
2022/01/03 01:14:40;;;;;;;8.35;2.80;;;;;;;;;;2322311;58;21168;-79
2022/01/03 01:17:07;;;;;;;7.90;2.70;;;;;;;;;;2321793;58;21132;-79
2022/01/03 01:19:34;;;;;;;7.90;2.28;;;;;;;;;;2321196;58;21069;-79
2022/01/03 01:22:01;;;;;;;6.25;2.30;;;;;;;;;;2562398;54;21062;-80
2022/01/03 01:24:34;;;;;;;5.15;2.00;;;;;;;;;;2321298;58;21045;-80
2022/01/03 01:29:46;;;;;;;8.85;2.00;;;;;;;;;;2321138;58;20994;-80
2022/01/03 01:32:14;;;;;;;6.22;1.75;;;;;;;;;;2563383;54;21911;-80
2022/01/03 01:34:44;;;;;;;4.72;1.70;;;;;;;;;;2321736;58;21105;-81
2022/01/03 01:37:12;;;;;;;4.30;1.55;;;;;;;;;;2321434;58;21097;-81
2022/01/03 01:39:41;;;;;;;4.05;1.62;;;;;;;;;;2562775;54;21152;-80
2022/01/03 01:42:09;;;;;;;7.50;1.73;;;;;;;;;;2321652;58;21129;-81
2022/01/03 01:44:36;;;;;;;4.35;1.58;;;;;;;;;;2321460;58;21093;-81
2022/01/03 01:47:04;;;;;;;5.20;1.95;;;;;;;;;;2321734;58;21025;-81
2022/01/03 01:49:37;;;;;;;2.78;1.52;;;;;;;;;;2563138;54;21113;-79
2022/01/03 01:52:05;;;;;;;5.00;2.37;;;;;;;;;;2321534;58;21065;-80
2022/01/03 01:54:34;;;;;;;4.03;2.00;;;;;;;;;;2321428;58;21057;-80
2022/01/03 01:57:17;;;;;;;4.40;1.87;;;;;;;;;;2563150;54;21133;-79
2022/01/03 01:59:54;;;;;;;2.58;1.65;;;;;;;;;;2563012;54;21577;-81
2022/01/03 02:02:26;;;;;;;4.57;1.67;;;;;;;;;;2562972;54;21109;-81
2022/01/03 02:05:03;;;;;;;4.07;1.50;;;;;;;;;;2321411;58;21049;-80
2022/01/03 02:07:45;;;;;;;4.87;1.87;;;;;;;;;;2321125;58;21136;-80
2022/01/03 02:10:13;;;;;;;3.58;1.70;;;;;;;;;;2320567;58;21617;-80
2022/01/03 02:12:41;;;;;;;6.37;2.00;;;;;;;;;;2321337;58;21077;-80
2022/01/03 02:15:11;;;;;;;3.95;1.50;;;;;;;;;;2321172;58;21049;-81
2022/01/03 02:17:39;;;;;;;2.67;1.40;;;;;;;;;;2563285;54;21111;-80
2022/01/03 02:20:08;;;;;;;2.00;1.52;;;;;;;;;;2321487;58;21054;-81
2022/01/03 02:22:36;;;;;;;3.67;1.65;;;;;;;;;;2321625;58;21101;-81
2022/01/03 02:25:03;;;;;;;5.57;1.48;;;;;;;;;;2563214;54;21596;-81
2022/01/03 02:27:31;;;;;;;3.92;1.48;;;;;;;;;;2321444;58;21064;-80
2022/01/03 02:29:58;;;;;;;1.37;1.20;;;;;;;;;;2563096;54;21124;-82
2022/01/03 02:32:25;;;;;;;5.95;1.40;;;;;;;;;;2321453;58;21050;-81
2022/01/03 02:34:53;;;;;;;3.28;1.40;;;;;;;;;;2321885;58;21053;-80
2022/01/03 02:37:19;;;;;;;4.15;1.75;;;;;;;;;;2321618;58;21566;-80
2022/01/03 02:39:46;;;;;;;5.12;1.52;;;;;;;;;;2321426;58;21069;-81
2022/01/03 02:42:13;;;;;;;3.85;1.25;;;;;;;;;;2563309;54;21141;-81
2022/01/03 02:44:43;;;;;;;2.92;1.23;;;;;;;;;;2563496;54;21060;-80
2022/01/03 02:47:10;;;;;;;3.12;1.10;;;;;;;;;;2321608;58;21136;-80
2022/01/03 02:49:37;;;;;;;5.05;1.10;;;;;;;;;;2321492;58;21129;-80
2022/01/03 02:52:05;;;;;;;4.80;1.45;;;;;;;;;;2322008;58;21085;-80
2022/01/03 02:54:31;;;;;;;0.98;0.60;;;;;;;;;;2562292;54;21050;-80
2022/01/03 02:56:58;;;;;;;1.65;0.73;;;;;;;;;;2321497;58;21566;-80
2022/01/03 02:59:25;;;;;;;3.45;0.90;;;;;;;;;;2321460;58;21108;-81
2022/01/03 03:01:52;;;;;;;3.17;0.80;;;;;;;;;;2321569;58;21055;-79
2022/01/03 03:04:19;;;;;;;2.87;1.00;;;;;;;;;;2321842;58;21092;-79
2022/01/03 03:06:46;;;;;;;2.25;0.88;;;;;;;;;;2322134;58;21073;-79
2022/01/03 03:09:14;;;;;;;3.85;1.05;;;;;;;;;;2321533;58;21609;-80
2022/01/03 03:11:42;;;;;;;3.05;0.70;;;;;;;;;;2563373;54;21090;-79
2022/01/03 03:14:08;;;;;;;1.12;0.82;;;;;;;;;;2562973;54;21686;-79
2022/01/03 03:16:36;;;;;;;1.62;0.70;;;;;;;;;;2321383;58;21609;-79
2022/01/03 03:19:03;;;;;;;2.67;0.88;;;;;;;;;;2563164;54;21078;-80
2022/01/03 03:21:30;;;;;;;3.10;1.20;;;;;;;;;;2563192;54;21046;-79
2022/01/03 03:23:58;;;;;;;5.55;1.10;;;;;;;;;;2563271;54;21042;-81
2022/01/03 03:26:25;;;;;;;6.40;1.05;;;;;;;;;;2321074;58;21049;-81
2022/01/03 03:28:52;;;;;;;4.28;1.17;;;;;;;;;;2321502;58;21033;-79
2022/01/03 03:31:19;;;;;;;3.97;1.40;;;;;;;;;;2563235;54;21399;-81
2022/01/03 03:33:46;;;;;;;5.37;1.02;;;;;;;;;;2321677;58;21065;-79
2022/01/03 03:36:13;;;;;;;4.82;1.02;;;;;;;;;;2321430;58;21064;-79
2022/01/03 03:38:40;;;;;;;9.02;1.70;;;;;;;;;;2321078;58;21065;-80
2022/01/03 03:41:07;;;;;;;7.35;1.50;;;;;;;;;;2321648;58;21053;-79
2022/01/03 03:43:34;;;;;;;4.75;1.35;;;;;;;;;;2321219;58;21137;-78
2022/01/03 03:46:01;;;;;;;6.80;2.03;;;;;;;;;;2321514;58;21054;-80
2022/01/03 03:48:28;;;;;;;5.85;1.15;;;;;;;;;;2562592;54;21105;-78
2022/01/03 03:50:55;;;;;;;9.15;1.40;;;;;;;;;;2320940;58;21545;-78
2022/01/03 03:53:22;;;;;;;5.35;1.05;;;;;;;;;;2563047;54;21049;-79
2022/01/03 03:55:50;;;;;;;5.40;1.37;;;;;;;;;;2562718;54;21053;-78
2022/01/03 03:58:16;;;;;;;6.30;1.73;;;;;;;;;;2321450;58;21042;-79
2022/01/03 04:00:44;;;;;;;7.87;1.77;;;;;;;;;;2320997;58;21113;-78
2022/01/03 04:03:11;;;;;;;5.05;1.67;;;;;;;;;;2563060;54;21597;-78
2022/01/03 04:05:38;;;;;;;8.23;2.40;;;;;;;;;;2321259;58;21145;-79
2022/01/03 04:08:05;;;;;;;9.15;2.33;;;;;;;;;;2321240;58;21045;-79
2022/01/03 04:10:32;;;;;;;7.97;2.42;;;;;;;;;;2562646;54;21045;-79
2022/01/03 04:12:59;;;;;;;11.77;2.72;;;;;;;;;;2321268;58;21053;-79
2022/01/03 04:15:26;;;;;;;5.80;2.53;;;;;;;;;;2562636;54;21061;-79
2022/01/03 04:17:53;;;;;;;9.40;2.80;;;;;;;;;;2321306;58;21053;-79
2022/01/03 04:20:20;;;;;;;13.27;3.20;;;;;;;;;;2320863;58;21077;-79
2022/01/03 04:22:47;;;;;;;11.93;3.25;;;;;;;;;;2321831;58;21045;-78
2022/01/03 04:25:15;;;;;;;7.18;2.67;;;;;;;;;;2321666;58;21133;-79
2022/01/03 04:27:42;;;;;;;12.35;3.08;;;;;;;;;;2320782;58;21029;-78
2022/01/03 04:30:09;;;;;;;14.45;3.42;;;;;;;;;;2321187;58;21065;-78
2022/01/03 04:32:36;;;;;;;15.35;4.53;;;;;;;;;;2321463;58;21041;-78
2022/01/03 04:35:04;;;;;;;15.48;3.97;;;;;;;;;;2562854;54;21046;-78
2022/01/03 04:37:31;;;;;;;10.40;3.70;;;;;;;;;;2320682;58;21128;-77
2022/01/03 04:39:58;;;;;;;13.95;3.92;;;;;;;;;;2320377;58;21101;-79
2022/01/03 04:42:25;;;;;;;16.33;3.95;;;;;;;;;;2320911;58;21049;-78
2022/01/03 04:44:52;;;;;;;15.50;3.90;;;;;;;;;;2320939;58;21125;-79
2022/01/03 04:47:19;;;;;;;18.75;3.90;;;;;;;;;;2320501;58;21081;-77
2022/01/03 04:49:46;;;;;;;11.55;3.75;;;;;;;;;;2320717;58;21117;-77
2022/01/03 04:52:13;;;;;;;11.85;3.83;;;;;;;;;;2562886;54;21121;-78
2022/01/03 04:54:40;;;;;;;11.23;4.40;;;;;;;;;;2321505;58;21065;-79
2022/01/03 04:57:07;;;;;;;13.60;3.75;;;;;;;;;;2321780;58;21712;-79
2022/01/03 04:59:34;;;;;;;9.43;3.58;;;;;;;;;;2562971;54;21109;-79
2022/01/03 05:02:04;;;;;;;8.68;3.60;;;;;;;;;;2321628;58;21121;-80
2022/01/03 05:04:31;;;;;;;9.82;4.00;;;;;;;;;;2562303;54;21057;-78
2022/01/03 05:06:58;;;;;;;16.48;4.80;;;;;;;;;;2562150;54;21711;-78
2022/01/03 05:09:25;;;;;;;19.35;3.87;;;;;;;;;;2320789;58;21094;-78
2022/01/03 05:11:52;;;;;;;14.57;4.28;;;;;;;;;;2320991;58;21113;-79
2022/01/03 05:14:19;;;;;;;11.27;3.50;;;;;;;;;;2321437;58;21153;-78
2022/01/03 05:16:46;;;;;;;13.40;3.83;;;;;;;;;;2320978;58;21141;-79
2022/01/03 05:19:13;;;;;;;18.40;3.87;;;;;;;;;;2320841;58;21046;-79
2022/01/03 05:21:40;;;;;;;15.73;3.53;;;;;;;;;;2320673;58;21054;-79
2022/01/03 05:24:07;;;;;;;16.30;3.97;;;;;;;;;;2321262;58;21053;-79
2022/01/03 05:26:34;;;;;;;7.75;2.20;;;;;;;;;;2321201;58;21128;-78
2022/01/03 05:29:01;;;;;;;15.70;3.17;;;;;;;;;;2561066;54;21050;-78
2022/01/03 05:31:28;;;;;;;16.37;3.67;;;;;;;;;;2321576;58;21098;-79
2022/01/03 05:33:55;;;;;;;13.02;3.87;;;;;;;;;;2321228;58;21089;-80
2022/01/03 05:36:22;;;;;;;16.65;3.42;;;;;;;;;;2433023;55;67854;-75
2022/01/03 05:38:49;;;;;;;11.25;3.30;;;;;;;;;;2261787;59;21149;-76
2022/01/03 05:41:16;;;;;;;10.02;2.78;;;;;;;;;;2262268;59;21092;-77
2022/01/03 05:43:44;;;;;;;16.12;3.50;;;;;;;;;;2491425;55;21078;-74
2022/01/03 05:46:11;;;;;;;14.50;3.45;;;;;;;;;;2262425;59;21439;-75
2022/01/03 05:48:38;;;;;;;9.18;3.17;;;;;;;;;;2262095;59;21681;-76
2022/01/03 05:51:05;;;;;;;20.40;3.70;;;;;;;;;;2262038;59;21142;-76
2022/01/03 05:53:32;;;;;;;21.12;4.50;;;;;;;;;;2261770;59;21094;-76
2022/01/03 05:56:00;;;;;;;14.50;3.58;;;;;;;;;;2491150;55;21154;-77
2022/01/03 05:58:27;;;;;;;13.48;3.45;;;;;;;;;;2491041;55;21106;-75
2022/01/03 06:00:54;;;;;;;16.65;3.60;;;;;;;;;;2261960;59;21130;-76
2022/01/03 06:03:23;;;;;;;9.48;2.83;;;;;;;;;;2262582;59;21632;-77
2022/01/03 06:06:06;;;;;;;16.85;3.65;;;;;;;;;;2491105;55;21604;-76
2022/01/03 06:08:33;;;;;;;8.00;3.05;;;;;;;;;;2490922;55;21214;-76
2022/01/03 06:11:01;;;;;;;16.50;3.55;;;;;;;;;;2490239;55;21082;-76
2022/01/03 06:13:28;;;;;;;15.23;3.83;;;;;;;;;;2262853;59;21691;-77
2022/01/03 06:15:55;;;;;;;12.88;4.28;;;;;;;;;;2263397;59;21691;-79
2022/01/03 06:18:23;;;;;;;16.05;4.30;;;;;;;;;;2492025;55;21573;-79
2022/01/03 06:20:51;;;;;;;15.25;3.65;;;;;;;;;;2261812;59;21078;-75
2022/01/03 06:23:19;;;;;;;15.98;3.15;;;;;;;;;;2261817;59;21066;-75
2022/01/03 06:25:47;;;;;;;19.40;3.50;;;;;;;;;;2262326;59;21585;-75
2022/01/03 06:28:14;;;;;;;14.73;3.28;;;;;;;;;;2491008;55;21672;-75
2022/01/03 06:30:43;;;;;;;14.15;3.37;;;;;;;;;;2262353;59;21078;-76
2022/01/03 06:33:10;;;;;;;22.35;4.30;;;;;;;;;;2262213;59;21556;-76
2022/01/03 06:35:37;;;;;;;17.73;3.72;;;;;;;;;;2262047;59;21149;-75
2022/01/03 06:38:05;;;;;;;20.02;4.05;;;;;;;;;;2262474;59;21071;-76
2022/01/03 06:40:32;;;;;;;34.42;5.40;;;;;;;;;;2262066;59;21672;-75
2022/01/03 06:42:59;;;;;;;18.55;3.62;;;;;;;;;;2491837;55;21082;-76
2022/01/03 06:45:26;;;;;;;18.55;5.25;;;;;;;;;;2262133;59;21079;-75
2022/01/03 06:47:53;;;;;;;13.50;3.92;;;;;;;;;;2262427;59;21763;-75
2022/01/03 06:50:20;;;;;;;20.92;3.70;;;;;;;;;;2262048;59;21079;-75
2022/01/03 06:52:47;;;;;;;25.40;4.45;;;;;;;;;;2491655;55;21110;-75
2022/01/03 06:55:15;;;;;;;23.17;4.30;;;;;;;;;;2262282;59;21067;-76
2022/01/03 06:57:41;;;;;;;20.33;4.35;;;;;;;;;;2262686;59;21329;-75
2022/01/03 07:00:09;;;;;;;16.90;3.40;;;;;;;;;;2261995;59;21667;-75
2022/01/03 07:02:36;;;;;;;24.80;4.72;;;;;;;;;;2262198;59;21074;-74
2022/01/03 07:05:03;;;;;;;20.33;3.45;;;;;;;;;;2262513;59;21138;-75
2022/01/03 07:07:30;;;;;;;18.77;4.25;;;;;;;;;;2262634;59;21667;-76
2022/01/03 07:09:57;;;;;;;20.23;3.15;;;;;;;;;;2261998;59;21083;-75
2022/01/03 07:12:24;;;;;;;25.20;4.70;;;;;;;;;;2262588;59;21673;-75
2022/01/03 07:20:22;;;;;;;24.45;4.68;;;;;;;;;;2262175;59;21043;-76
2022/01/03 07:22:49;;;;;;;20.95;4.12;;;;;;;;;;2491729;55;21149;-76
2022/01/03 07:25:16;;;;;;;23.45;4.32;;;;;;;;;;2491656;55;21099;-76
2022/01/03 07:27:43;;;;;;;16.10;3.58;;;;;;;;;;2262659;59;21627;-76
2022/01/03 07:30:11;;;;;;;18.83;3.87;;;;;;;;;;2491449;55;21067;-73
2022/01/03 07:32:38;;;;;;;19.87;3.80;;;;;;;;;;2262764;59;21090;-77
2022/01/03 07:35:05;;;;;;;24.02;4.05;;;;;;;;;;2262582;59;21074;-74
2022/01/03 07:37:33;;;;;;;25.27;4.45;;;;;;;;;;2262343;59;21138;-76
2022/01/03 07:40:00;;;;;;;22.73;4.87;;;;;;;;;;2491058;55;21066;-75
2022/01/03 07:42:27;;;;;;;27.23;5.80;;;;;;;;;;2262674;59;21154;-76
2022/01/03 07:44:54;;;;;;;33.97;5.68;;;;;;;;;;2491828;55;21565;-77
2022/01/03 07:47:21;;;;;;;20.60;3.78;;;;;;;;;;2262756;59;21165;-73
2022/01/03 07:49:48;;;;;;;25.02;4.75;;;;;;;;;;2262210;59;21142;-76
2022/01/03 07:52:15;;;;;;;28.98;4.20;;;;;;;;;;2491866;55;21057;-75
2022/01/03 07:54:42;;;;;;;29.23;3.58;;;;;;;;;;2491295;55;21083;-76
2022/01/03 07:57:09;;;;;;;29.02;4.55;;;;;;;;;;2262301;59;21082;-75
2022/01/03 07:59:36;;;;;;;17.00;4.03;;;;;;;;;;2262382;59;21628;-76
2022/01/03 08:02:03;;;;;;;19.85;3.33;;;;;;;;;;2263137;59;21086;-77
2022/01/03 08:04:30;;;;;;;18.90;3.95;;;;;;;;;;2262703;59;21198;-75
2022/01/03 08:06:57;;;;;;;26.15;3.87;;;;;;;;;;2261811;59;21082;-75
2022/01/03 08:09:24;;;;;;;28.95;4.30;;;;;;;;;;2261449;59;21094;-75
2022/01/03 08:11:52;;;;;;;18.08;3.60;;;;;;;;;;2262651;59;21075;-77
2022/01/03 08:14:19;;;;;;;24.55;3.85;;;;;;;;;;2262687;59;22225;-77
2022/01/03 08:16:46;;;;;;;14.32;3.50;;;;;;;;;;2262755;59;21079;-76
2022/01/03 08:19:13;;;;;;;28.17;4.07;;;;;;;;;;2262298;59;21146;-74
2022/01/03 08:21:40;;;;;;;27.23;4.85;;;;;;;;;;2262558;59;21102;-76
2022/01/03 08:24:07;;;;;;;25.30;5.35;;;;;;;;;;2262404;59;21141;-77
2022/01/03 08:26:36;;;;;;;28.75;3.47;;;;;;;;;;2490751;55;21113;-77
2022/01/03 08:29:03;;;;;;;24.08;4.50;;;;;;;;;;2261756;59;21412;-75
2022/01/03 08:31:30;;;;;;;19.50;3.70;;;;;;;;;;2262696;59;21561;-76
2022/01/03 08:33:57;;;;;;;22.45;4.37;;;;;;;;;;2262133;59;21137;-77
2022/01/03 08:36:24;;;;;;;21.35;4.22;;;;;;;;;;2491158;55;21123;-75
2022/01/03 08:38:51;;;;;;;18.05;3.75;;;;;;;;;;2491146;55;21150;-77
2022/01/03 08:41:18;;;;;;;19.75;3.22;;;;;;;;;;2262733;59;21226;-75
2022/01/03 08:43:45;;;;;;;22.08;3.30;;;;;;;;;;2261735;59;21078;-76
2022/01/03 08:46:13;;;;;;;25.42;3.47;;;;;;;;;;2263022;59;21098;-76
2022/01/03 08:48:40;;;;;;;20.33;5.03;;;;;;;;;;2262074;59;21577;-76
2022/01/03 08:51:07;;;;;;;25.70;3.83;;;;;;;;;;2262546;59;21079;-77
2022/01/03 08:53:34;;;;;;;25.10;4.68;;;;;;;;;;2259644;59;21153;-76
2022/01/03 08:56:01;;;;;;;23.27;4.00;;;;;;;;;;2261886;59;21142;-77
2022/01/03 08:58:28;;;;;;;30.80;3.83;;;;;;;;;;2491341;55;21131;-75
2022/01/03 09:00:55;;;;;;;22.30;3.60;;;;;;;;;;2261206;59;21116;-75
2022/01/03 09:03:22;;;;;;;20.55;3.40;;;;;;;;;;2261625;59;21091;-75
2022/01/03 09:05:50;;;;;;;21.12;3.40;;;;;;;;;;2262110;59;21209;-75
2022/01/03 09:08:17;;;;;;;21.67;3.90;;;;;;;;;;2262329;59;21078;-76
2022/01/03 09:10:44;;;;;;;19.95;3.25;;;;;;;;;;2261700;59;21086;-75
2022/01/03 09:13:11;;;;;;;24.00;3.85;;;;;;;;;;2262288;59;21086;-75
2022/01/03 09:15:44;;;;;;;24.63;5.55;;;;;;;;;;2262160;59;21078;-74
2022/01/03 09:18:11;;;;;;;22.95;3.80;;;;;;;;;;2261697;59;21055;-76
2022/01/03 09:20:38;;;;;;;25.12;5.12;;;;;;;;;;2261484;59;21348;-76
2022/01/03 09:23:10;;;;;;;16.00;3.17;;;;;;;;;;2491387;55;21338;-75
2022/01/03 09:31:08;;;;;;;22.20;2.97;;;;;;;;;;2262226;59;21022;-76
2022/01/03 09:33:35;;;;;;;15.23;3.55;;;;;;;;;;2262302;59;21155;-77
2022/01/03 09:36:02;;;;;;;18.37;4.18;;;;;;;;;;2261780;59;21094;-76
2022/01/03 09:38:29;;;;;;;16.83;3.80;;;;;;;;;;2262219;59;21628;-77
2022/01/03 09:40:58;;;;;;;23.50;3.97;;;;;;;;;;2491601;55;21082;-76
2022/01/03 09:43:26;;;;;;;21.80;4.03;;;;;;;;;;2261655;59;21134;-76
2022/01/03 09:45:54;;;;;;;20.95;3.78;;;;;;;;;;2262022;59;21653;-76
2022/01/03 09:48:22;;;;;;;19.92;4.20;;;;;;;;;;2262484;59;21558;-76
2022/01/03 09:50:49;;;;;;;23.25;5.03;;;;;;;;;;2261343;59;21185;-75
2022/01/03 09:53:19;;;;;;;19.23;3.97;;;;;;;;;;2261567;59;21094;-76
2022/01/03 09:55:47;;;;;;;15.52;3.25;;;;;;;;;;2262064;59;21581;-77
2022/01/03 09:58:15;;;;;;;26.27;4.87;;;;;;;;;;2262534;59;21536;-77
2022/01/03 10:00:42;;;;;;;27.40;4.00;;;;;;;;;;2262152;59;21078;-76
2022/01/03 10:03:09;;;;;;;21.33;3.83;;;;;;;;;;2491958;55;21146;-77
2022/01/03 10:05:36;;;;;;;30.52;5.10;;;;;;;;;;2262675;59;21573;-77
2022/01/03 10:08:03;;;;;;;19.12;4.25;;;;;;;;;;2491452;55;21078;-76
2022/01/03 10:10:30;;;;;;;25.48;4.37;;;;;;;;;;2262056;59;21081;-77
2022/01/03 10:12:57;;;;;;;23.23;4.07;;;;;;;;;;2262907;59;21094;-76
2022/01/03 10:15:25;;;;;;;25.12;5.75;;;;;;;;;;2262464;59;21079;-76
2022/01/03 10:17:52;;;;;;;24.15;4.25;;;;;;;;;;2262846;59;21328;-76
2022/01/03 10:20:20;;;;;;;23.20;3.60;;;;;;;;;;2262360;59;21592;-76
2022/01/03 10:22:47;;;;;;;24.65;4.25;;;;;;;;;;2262262;59;21135;-76
2022/01/03 10:25:19;;;;;;;17.37;4.37;;;;;;;;;;2262186;59;21138;-76
2022/01/03 10:27:47;;;;;;;28.87;4.90;;;;;;;;;;2491861;55;21130;-76
2022/01/03 10:30:28;;;;;;;25.02;4.55;;;;;;;;;;2261901;59;21149;-75
2022/01/03 10:32:55;;;;;;;28.58;4.20;;;;;;;;;;2492107;55;21071;-75
2022/01/03 10:35:23;;;;;;;21.77;4.60;;;;;;;;;;2491401;55;21087;-76
2022/01/03 10:37:50;;;;;;;18.77;4.35;;;;;;;;;;2491632;55;21212;-76
2022/01/03 10:40:18;;;;;;;19.37;4.15;;;;;;;;;;2261627;59;21184;-76
2022/01/03 10:42:46;;;;;;;25.00;4.25;;;;;;;;;;2491351;55;21668;-76
2022/01/03 10:45:13;;;;;;;22.20;4.30;;;;;;;;;;2262435;59;21067;-76
2022/01/03 10:47:41;;;;;;;23.60;3.85;;;;;;;;;;2491414;55;21210;-75
2022/01/03 10:50:15;;;;;;;23.70;4.93;;;;;;;;;;2491352;55;21086;-75
2022/01/03 10:52:42;;;;;;;27.58;4.12;;;;;;;;;;2262604;59;21122;-76
2022/01/03 10:55:11;;;;;;;30.10;4.78;;;;;;;;;;2261978;59;21071;-76
2022/01/03 10:57:45;;;;;;;28.85;5.12;;;;;;;;;;2262525;59;21113;-76
2022/01/03 11:00:14;;;;;;;26.40;4.62;;;;;;;;;;2491394;55;21066;-77
2022/01/03 11:02:42;;;;;;;27.30;4.85;;;;;;;;;;2492112;55;21142;-77
2022/01/03 11:05:12;;;;;;;26.45;4.75;;;;;;;;;;2262320;59;21141;-75
2022/01/03 11:13:12;;;;;;;28.65;4.78;;;;;;;;;;2262420;59;21015;-75
2022/01/03 11:15:40;;;;;;;23.33;5.62;;;;;;;;;;2491680;55;21078;-76
2022/01/03 11:18:11;;;;;;;27.60;3.97;;;;;;;;;;2491392;55;21668;-77
2022/01/03 11:20:38;;;;;;;23.17;4.12;;;;;;;;;;2261816;59;21067;-74
2022/01/03 11:23:05;;;;;;;28.52;4.53;;;;;;;;;;2262405;59;21142;-76
2022/01/03 11:25:33;;;;;;;28.70;3.97;;;;;;;;;;2262999;59;21090;-80
2022/01/03 11:28:00;;;;;;;24.33;4.10;;;;;;;;;;2263835;59;21617;-80
2022/01/03 11:30:28;;;;;;;24.65;3.97;;;;;;;;;;2492255;55;21090;-80
2022/01/03 11:32:56;;;;;;;19.83;4.22;;;;;;;;;;2263581;59;21224;-79
2022/01/03 11:35:23;;;;;;;23.92;3.80;;;;;;;;;;2497358;53;67377;-78
2022/01/03 11:37:51;;;;;;;28.95;4.85;;;;;;;;;;2372466;54;21056;-83
2022/01/03 11:40:18;;;;;;;21.20;4.65;;;;;;;;;;2323908;58;21110;-76
2022/01/03 11:42:46;;;;;;;20.52;3.78;;;;;;;;;;2365977;54;21134;-81
2022/01/03 11:45:13;;;;;;;18.45;3.72;;;;;;;;;;2323825;58;21102;-81
2022/01/03 11:47:40;;;;;;;29.37;4.55;;;;;;;;;;2322853;58;21090;-82
2022/01/03 11:50:09;;;;;;;14.75;3.47;;;;;;;;;;2333654;54;21558;-83
2022/01/03 11:52:40;;;;;;;23.87;4.25;;;;;;;;;;2322833;58;21045;-82
2022/01/03 11:55:08;;;;;;;21.90;3.85;;;;;;;;;;2322678;58;21114;-82
2022/01/03 11:57:57;;;;;;;20.73;4.85;;;;;;;;;;2323554;55;21066;-82
2022/01/03 12:06:06;;;;;;;23.87;5.10;;;;;;;;;;2336510;57;27817;-79
2022/01/03 12:08:34;;;;;;;22.98;4.12;;;;;;;;;;2349278;56;21550;-78
2022/01/03 12:11:02;;;;;;;24.63;3.75;;;;;;;;;;2375226;56;21047;-78
2022/01/03 12:13:49;;;;;;;16.25;3.22;;;;;;;;;;2375445;56;21043;-78
2022/01/03 12:16:16;;;;;;;19.50;3.70;;;;;;;;;;2375306;56;21525;-78
2022/01/03 12:18:57;;;;;;;17.85;3.80;;;;;;;;;;2374847;56;21062;-77
2022/01/03 12:21:42;;;;;;;26.40;3.95;;;;;;;;;;2513518;52;21522;-78
2022/01/03 12:24:39;;;;;;;25.10;3.62;;;;;;;;;;2375936;56;21110;-78
2022/01/03 12:27:24;;;;;;;17.77;3.28;;;;;;;;;;2375844;56;21031;-79
2022/01/03 12:30:14;;;;;;;19.15;3.47;;;;;;;;;;2380679;52;21023;-78
2022/01/03 12:32:41;;;;;;;19.30;3.65;;;;;;;;;;2382076;52;21039;-77
2022/01/03 12:35:20;;;;;;;21.95;3.28;;;;;;;;;;2375059;56;21098;-77
2022/01/03 12:37:48;;;;;;;22.55;3.53;;;;;;;;;;2375332;56;21062;-77
2022/01/03 12:40:16;;;;;;;28.02;3.80;;;;;;;;;;2374984;56;21027;-78
2022/01/03 12:42:52;;;;;;;23.17;3.42;;;;;;;;;;2405300;52;21054;-78
2022/01/03 12:45:50;;;;;;;17.67;4.32;;;;;;;;;;2374757;56;21058;-78
2022/01/03 12:48:18;;;;;;;25.45;4.20;;;;;;;;;;2375559;56;21031;-78
2022/01/03 12:50:47;;;;;;;16.52;3.33;;;;;;;;;;2407009;52;21102;-77
2022/01/03 12:53:34;;;;;;;17.58;2.97;;;;;;;;;;2374697;56;21043;-77
2022/01/03 12:56:04;;;;;;;17.30;3.35;;;;;;;;;;2375048;56;21106;-77
2022/01/03 12:58:38;;;;;;;21.23;3.85;;;;;;;;;;2375119;56;21110;-77
2022/01/03 13:01:09;;;;;;;22.87;3.85;;;;;;;;;;2374560;56;21047;-77
2022/01/03 13:03:43;;;;;;;25.17;4.18;;;;;;;;;;2403489;52;21593;-77
2022/01/03 13:06:10;;;;;;;18.40;3.53;;;;;;;;;;2374298;56;21109;-77
2022/01/03 13:08:38;;;;;;;18.60;5.15;;;;;;;;;;2374312;56;21592;-77
2022/01/03 13:11:08;;;;;;;24.77;3.90;;;;;;;;;;2373477;56;21047;-77
2022/01/03 13:13:35;;;;;;;25.65;4.68;;;;;;;;;;2374244;56;21032;-77
2022/01/03 13:18:55;;;;;;;19.30;3.50;;;;;;;;;;2266116;59;22165;-77
2022/01/03 13:21:22;;;;;;;21.35;4.40;;;;;;;;;;2264755;59;21655;-77
2022/01/03 13:23:53;;;;;;;18.30;3.42;;;;;;;;;;2264563;59;21706;-78
2022/01/03 13:26:21;;;;;;;17.65;3.47;;;;;;;;;;2264563;59;21149;-77
2022/01/03 13:28:48;;;;;;;21.85;3.60;;;;;;;;;;2264243;59;21042;-78
2022/01/03 13:31:16;;;;;;;19.95;3.55;;;;;;;;;;2280235;55;21086;-78
2022/01/03 13:33:43;;;;;;;22.05;3.28;;;;;;;;;;2278023;55;21077;-78
2022/01/03 13:36:14;;;;;;;16.33;3.87;;;;;;;;;;2374947;55;21125;-77
2022/01/03 13:38:42;;;;;;;20.80;3.85;;;;;;;;;;2361040;55;21057;-79
2022/01/03 13:41:12;;;;;;;23.02;3.67;;;;;;;;;;2268581;55;21396;-78
2022/01/03 13:43:43;;;;;;;22.45;3.95;;;;;;;;;;2264752;59;21046;-79
2022/01/03 13:49:13;;;;;;;20.40;3.70;;;;;;;;;;2263678;55;21627;-78
2022/01/03 13:51:45;;;;;;;22.62;3.72;;;;;;;;;;2402270;55;21552;-76
2022/01/03 13:54:22;;;;;;;16.98;3.80;;;;;;;;;;2264581;59;21149;-78
2022/01/03 13:56:49;;;;;;;20.02;3.45;;;;;;;;;;2264685;59;21080;-77
2022/01/03 13:59:17;;;;;;;21.87;3.37;;;;;;;;;;2264334;59;21066;-78
2022/01/03 14:01:44;;;;;;;21.45;3.62;;;;;;;;;;2264954;59;21078;-78
2022/01/03 14:04:13;;;;;;;30.55;5.05;;;;;;;;;;2264833;59;21627;-78
2022/01/03 14:06:41;;;;;;;20.10;3.37;;;;;;;;;;2264743;59;21564;-78
2022/01/03 14:09:15;;;;;;;14.07;3.25;;;;;;;;;;2263889;59;21049;-77
2022/01/03 14:11:43;;;;;;;19.30;3.22;;;;;;;;;;2261147;59;21077;-78
2022/01/03 14:14:11;;;;;;;17.45;3.45;;;;;;;;;;2264634;59;21042;-78
2022/01/03 14:16:54;;;;;;;17.17;3.12;;;;;;;;;;2264739;59;21074;-78
2022/01/03 14:19:21;;;;;;;12.65;2.25;;;;;;;;;;2264264;59;21049;-78
2022/01/03 14:21:48;;;;;;;10.88;2.03;;;;;;;;;;2274901;55;21073;-78
2022/01/03 14:24:16;;;;;;;8.85;1.85;;;;;;;;;;2268614;55;21086;-78
2022/01/03 14:26:54;;;;;;;6.03;1.70;;;;;;;;;;2274102;55;21046;-77
2022/01/03 14:29:21;;;;;;;7.28;1.30;;;;;;;;;;2263322;59;21082;-81
2022/01/03 14:31:50;;;;;;;7.57;1.52;;;;;;;;;;2264312;59;21097;-85
2022/01/03 14:34:20;;;;;;;5.43;1.33;;;;;;;;;;2286829;55;21054;-81
2022/01/03 14:36:47;;;;;;;11.70;1.90;;;;;;;;;;2263598;59;21720;-80
2022/01/03 14:39:14;;;;;;;9.65;1.80;;;;;;;;;;2263910;59;21067;-80
2022/01/03 14:41:41;;;;;;;6.93;1.85;;;;;;;;;;2263978;59;21077;-80
2022/01/03 14:44:09;;;;;;;5.57;1.40;;;;;;;;;;2264027;59;21098;-81
2022/01/03 14:46:37;;;;;;;5.43;1.15;;;;;;;;;;2264045;59;21496;-80
2022/01/03 14:49:05;;;;;;;4.53;1.85;;;;;;;;;;2295011;55;21082;-80
2022/01/03 14:51:37;;;;;;;8.32;1.73;;;;;;;;;;2267522;55;21141;-82
2022/01/03 14:54:11;;;;;;;2.35;1.10;;;;;;;;;;2263938;59;21149;-82
2022/01/03 14:56:38;;;;;;;5.03;1.52;;;;;;;;;;2264270;59;21145;-80
2022/01/03 14:59:16;;;;;;;5.57;2.45;;;;;;;;;;2263763;59;21070;-81
2022/01/03 15:01:44;;;;;;;8.27;1.92;;;;;;;;;;2283592;55;21060;-82
2022/01/03 15:04:12;;;;;;;7.28;1.80;;;;;;;;;;2263980;56;21074;-82
2022/01/03 15:06:39;;;;;;;14.15;2.25;;;;;;;;;;2264002;59;21070;-83
2022/01/03 15:09:06;;;;;;;10.25;3.40;;;;;;;;;;2300164;55;21062;-83
2022/01/03 15:11:33;;;;;;;16.67;3.12;;;;;;;;;;2264138;59;21589;-83